Time;durP1;ratioP1;P1;durP2;ratioP2;P2;SDS_P1;SDS_P2;PMS_P1;PMS_P2;Temp;Humidity;BMP_temperature;BMP_pressure;BME280_temperature;BME280_humidity;BME280_pressure;Samples;Min_cycle;Max_cycle;Signal;HPM_P1;HPM_P2
2022/10/31 00:02:22;;;;;;;1.98;0.90;;;25.50;44.10;;;;;;5053132;28;20192;-40
2022/10/31 00:04:53;;;;;;;1.63;0.82;;;25.60;44.10;;;;;;5053126;28;20207;-40
2022/10/31 00:07:24;;;;;;;2.10;0.68;;;25.60;44.00;;;;;;5052714;28;20224;-40
2022/10/31 00:09:54;;;;;;;0.85;0.60;;;25.60;44.00;;;;;;5052978;28;20222;-40
2022/10/31 00:12:25;;;;;;;1.75;0.65;;;25.60;44.00;;;;;;5050148;28;20203;-40
2022/10/31 00:14:58;;;;;;;1.10;0.73;;;25.70;44.00;;;;;;5032376;28;20204;-45
2022/10/31 00:17:29;;;;;;;1.27;0.70;;;25.70;44.00;;;;;;5032278;28;20219;-40
2022/10/31 00:19:59;;;;;;;0.85;0.80;;;25.80;44.00;;;;;;5032961;28;20192;-40
2022/10/31 00:22:30;;;;;;;0.80;0.60;;;25.80;44.10;;;;;;5032573;28;20561;-40
2022/10/31 00:25:01;;;;;;;1.85;0.70;;;25.80;44.00;;;;;;5036901;28;20194;-40
2022/10/31 00:27:31;;;;;;;1.73;0.50;;;25.90;44.00;;;;;;5053238;28;20221;-46
2022/10/31 00:30:04;;;;;;;2.35;0.80;;;25.90;43.80;;;;;;5052651;28;20785;-40
2022/10/31 00:32:35;;;;;;;1.42;0.60;;;25.90;43.70;;;;;;5052773;28;20191;-40
2022/10/31 00:35:06;;;;;;;1.63;0.80;;;25.90;43.80;;;;;;5046732;28;20184;-40
2022/10/31 00:37:36;;;;;;;1.55;0.50;;;25.90;43.80;;;;;;5032443;28;20220;-40
2022/10/31 00:40:08;;;;;;;1.75;0.60;;;25.90;43.80;;;;;;5042122;28;20199;-40
2022/10/31 00:42:39;;;;;;;1.10;0.55;;;26.00;43.70;;;;;;5049170;28;20204;-40
2022/10/31 00:45:12;;;;;;;0.70;0.50;;;26.00;43.70;;;;;;5032173;28;20193;-42
2022/10/31 00:47:43;;;;;;;0.95;0.65;;;26.00;43.70;;;;;;5032237;28;20209;-42
2022/10/31 00:50:14;;;;;;;0.60;0.38;;;26.00;43.70;;;;;;5032149;28;20208;-40
2022/10/31 00:52:44;;;;;;;1.30;0.80;;;26.00;43.70;;;;;;5032490;28;20199;-43
2022/10/31 00:55:15;;;;;;;0.70;0.55;;;26.00;43.70;;;;;;5031667;28;20690;-40
2022/10/31 00:57:48;;;;;;;2.45;0.70;;;26.00;43.60;;;;;;5041871;28;20584;-40
2022/10/31 01:00:21;;;;;;;0.63;0.47;;;26.10;43.60;;;;;;5050643;28;20202;-40
2022/10/31 01:02:52;;;;;;;0.93;0.60;;;26.10;43.50;;;;;;5049203;28;20192;-40
2022/10/31 01:05:23;;;;;;;1.45;0.70;;;26.00;43.40;;;;;;5046204;28;20898;-40
2022/10/31 01:07:53;;;;;;;1.73;0.88;;;26.00;43.30;;;;;;5031918;28;20216;-40
2022/10/31 01:10:24;;;;;;;1.58;0.65;;;26.00;43.30;;;;;;5042557;28;20219;-40
2022/10/31 01:12:55;;;;;;;0.88;0.40;;;26.00;43.20;;;;;;5049864;28;20226;-40
2022/10/31 01:15:28;;;;;;;0.98;0.50;;;26.00;43.40;;;;;;5050257;28;20201;-40
2022/10/31 01:17:58;;;;;;;1.50;0.60;;;26.10;43.50;;;;;;5050488;28;20254;-39
2022/10/31 01:20:29;;;;;;;0.93;0.50;;;26.10;43.50;;;;;;5050822;28;20569;-39
2022/10/31 01:23:01;;;;;;;1.65;0.70;;;26.00;43.50;;;;;;5050741;28;20200;-40
2022/10/31 01:25:31;;;;;;;1.17;0.50;;;26.10;43.60;;;;;;5043108;28;20226;-40
2022/10/31 01:28:02;;;;;;;2.15;0.70;;;26.10;43.60;;;;;;5030415;28;20223;-42
2022/10/31 01:30:35;;;;;;;0.60;0.50;;;26.10;43.50;;;;;;5029521;28;20220;-39
2022/10/31 01:33:06;;;;;;;0.80;0.50;;;26.10;43.50;;;;;;5029966;28;20584;-40
2022/10/31 01:35:37;;;;;;;0.88;0.70;;;26.10;43.50;;;;;;5030646;28;20211;-41
2022/10/31 01:38:07;;;;;;;1.35;0.65;;;26.00;43.30;;;;;;5039158;28;20592;-40
2022/10/31 01:40:38;;;;;;;2.17;0.70;;;26.00;43.30;;;;;;5045037;28;20199;-40
2022/10/31 01:43:11;;;;;;;1.30;0.90;;;26.00;43.30;;;;;;5042836;28;20206;-40
2022/10/31 01:45:46;;;;;;;1.73;0.80;;;26.00;43.30;;;;;;5030413;28;20196;-39
2022/10/31 01:48:21;;;;;;;1.23;0.70;;;26.00;43.40;;;;;;5029846;28;20219;-40
2022/10/31 01:50:52;;;;;;;1.13;0.68;;;26.00;43.30;;;;;;5029593;28;20227;-39
2022/10/31 01:53:25;;;;;;;1.25;0.82;;;26.00;43.40;;;;;;5042827;28;20192;-40
2022/10/31 01:55:55;;;;;;;0.65;0.60;;;26.00;43.50;;;;;;5037506;28;20218;-40
2022/10/31 01:58:29;;;;;;;2.38;0.80;;;26.00;43.50;;;;;;5039744;28;20211;-41
2022/10/31 02:01:04;;;;;;;2.78;1.00;;;26.00;43.50;;;;;;5045064;28;20195;-40
2022/10/31 02:03:35;;;;;;;0.80;0.70;;;26.00;43.50;;;;;;5050867;28;20195;-40
2022/10/31 02:06:08;;;;;;;3.03;1.08;;;26.00;43.40;;;;;;5039339;28;20207;-40
2022/10/31 02:08:41;;;;;;;3.63;0.70;;;26.00;43.50;;;;;;5030780;28;20220;-44
2022/10/31 02:11:13;;;;;;;1.90;0.90;;;26.00;43.50;;;;;;5048164;28;20227;-41
2022/10/31 02:13:43;;;;;;;1.70;0.77;;;26.00;43.40;;;;;;5030632;28;20279;-40
2022/10/31 02:16:16;;;;;;;2.40;0.70;;;26.00;43.40;;;;;;5030457;28;20203;-40
2022/10/31 02:18:47;;;;;;;2.30;0.70;;;26.00;43.40;;;;;;5032296;28;20227;-40
2022/10/31 02:21:24;;;;;;;2.65;1.00;;;26.00;43.50;;;;;;5029963;28;20204;-40
2022/10/31 02:24:40;;;;;;;2.97;0.90;;;26.00;43.50;;;;;;5030464;28;20686;-41
2022/10/31 02:27:32;;;;;;;1.83;0.80;;;26.00;43.40;;;;;;5030752;28;20219;-45
2022/10/31 02:30:12;;;;;;;1.20;0.70;;;26.00;43.50;;;;;;5029405;28;20208;-40
2022/10/31 02:32:55;;;;;;;2.60;0.90;;;25.90;43.40;;;;;;5029851;28;20211;-40
2022/10/31 02:35:39;;;;;;;1.08;0.60;;;25.90;43.50;;;;;;5043189;28;20569;-39
2022/10/31 02:38:23;;;;;;;1.63;0.80;;;26.00;43.70;;;;;;5043729;28;20228;-39
2022/10/31 02:41:02;;;;;;;2.03;0.85;;;25.90;43.50;;;;;;5047134;28;20203;-42
2022/10/31 02:43:41;;;;;;;1.27;0.82;;;25.90;43.60;;;;;;5050962;28;20199;-40
2022/10/31 02:46:17;;;;;;;2.05;0.88;;;26.00;43.70;;;;;;5050038;28;20191;-40
2022/10/31 02:48:53;;;;;;;1.48;0.90;;;26.00;43.70;;;;;;5050235;28;20215;-46
2022/10/31 02:51:24;;;;;;;1.00;0.85;;;25.90;43.60;;;;;;5030166;28;20230;-40
2022/10/31 02:53:54;;;;;;;2.88;1.00;;;25.90;43.70;;;;;;5037250;28;20198;-40
2022/10/31 02:56:25;;;;;;;1.55;0.80;;;25.90;43.70;;;;;;5040370;28;20200;-40
2022/10/31 02:58:58;;;;;;;1.75;0.60;;;25.90;43.80;;;;;;5031391;28;20592;-40
2022/10/31 03:01:57;;;;;;;1.83;0.88;;;25.90;43.70;;;;;;5054010;28;20199;-40
2022/10/31 03:05:06;;;;;;;1.33;0.88;;;25.90;43.80;;;;;;5046369;28;20206;-39
2022/10/31 03:07:48;;;;;;;0.95;0.60;;;25.90;43.80;;;;;;5053721;28;20226;-40
2022/10/31 03:10:29;;;;;;;0.98;0.60;;;25.90;43.80;;;;;;5046500;28;20199;-43
2022/10/31 03:13:08;;;;;;;1.92;0.82;;;25.90;43.80;;;;;;5053596;28;20209;-43
2022/10/31 03:15:45;;;;;;;1.50;0.85;;;25.90;43.90;;;;;;5046568;28;20203;-39
2022/10/31 03:18:19;;;;;;;2.58;1.00;;;25.90;43.90;;;;;;5053704;28;20226;-43
2022/10/31 03:20:56;;;;;;;0.85;0.73;;;25.90;43.90;;;;;;5048815;28;20313;-46
2022/10/31 03:23:28;;;;;;;1.98;0.88;;;25.90;44.00;;;;;;5033638;28;20204;-40
2022/10/31 03:26:00;;;;;;;1.05;0.55;;;25.90;43.90;;;;;;5034335;28;20196;-40
2022/10/31 03:28:34;;;;;;;1.48;0.73;;;25.90;43.90;;;;;;5034287;28;20216;-41
2022/10/31 03:31:07;;;;;;;1.67;0.73;;;25.90;43.90;;;;;;5033652;28;20224;-40
2022/10/31 03:33:40;;;;;;;2.00;0.90;;;25.90;43.90;;;;;;5033860;28;20207;-40
2022/10/31 03:36:16;;;;;;;0.90;0.70;;;25.90;44.00;;;;;;5048176;28;20644;-40
2022/10/31 03:38:48;;;;;;;2.50;0.70;;;25.90;44.00;;;;;;5052665;28;20223;-45
2022/10/31 03:41:23;;;;;;;0.95;0.63;;;25.90;44.00;;;;;;5044387;28;20204;-40
2022/10/31 03:43:59;;;;;;;1.83;0.90;;;25.90;44.00;;;;;;5032860;28;20202;-50
2022/10/31 03:46:31;;;;;;;1.00;0.80;;;25.80;43.90;;;;;;5032732;28;20202;-43
2022/10/31 03:49:02;;;;;;;1.58;0.85;;;25.80;43.90;;;;;;5043560;28;20212;-45
2022/10/31 03:51:42;;;;;;;1.92;1.20;;;25.80;43.90;;;;;;5033383;28;20220;-41
2022/10/31 03:54:19;;;;;;;1.80;0.90;;;25.90;44.00;;;;;;5035085;28;20188;-40
2022/10/31 03:56:55;;;;;;;0.75;0.65;;;25.90;43.90;;;;;;5049798;28;20202;-43
2022/10/31 03:59:31;;;;;;;1.38;0.98;;;25.90;43.90;;;;;;5033531;28;20196;-42
2022/10/31 04:02:05;;;;;;;2.17;1.00;;;25.80;43.90;;;;;;5033644;28;20199;-40
2022/10/31 04:04:37;;;;;;;1.70;0.93;;;25.80;43.90;;;;;;5032503;28;20222;-43
2022/10/31 04:07:11;;;;;;;2.35;1.10;;;25.80;43.90;;;;;;5033635;28;20216;-42
2022/10/31 04:09:45;;;;;;;2.05;0.88;;;25.80;43.90;;;;;;5038680;28;20200;-40
2022/10/31 04:12:18;;;;;;;2.25;0.60;;;25.80;44.50;;;;;;5052896;28;20227;-42
2022/10/31 04:14:51;;;;;;;1.02;0.70;;;25.80;43.90;;;;;;5052997;28;20196;-43
2022/10/31 04:17:23;;;;;;;1.60;0.95;;;25.80;43.90;;;;;;5052865;28;20215;-49
2022/10/31 04:19:54;;;;;;;1.25;0.90;;;25.70;43.80;;;;;;5049210;28;20196;-46
2022/10/31 04:22:27;;;;;;;2.80;0.93;;;25.70;43.90;;;;;;5033487;28;20193;-52
2022/10/31 04:24:57;;;;;;;1.00;0.75;;;25.70;43.90;;;;;;5032535;28;20271;-40
2022/10/31 04:27:28;;;;;;;2.03;0.98;;;25.70;43.90;;;;;;5032908;28;20212;-40
2022/10/31 04:29:59;;;;;;;1.45;0.75;;;25.70;43.80;;;;;;5033421;28;20188;-41
2022/10/31 04:32:30;;;;;;;3.03;0.70;;;25.70;43.80;;;;;;5032575;28;20220;-40
2022/10/31 04:35:00;;;;;;;2.35;0.88;;;25.70;43.90;;;;;;5036012;28;20198;-41
2022/10/31 04:37:33;;;;;;;2.05;0.80;;;25.70;43.80;;;;;;5052442;28;20852;-40
2022/10/31 04:40:04;;;;;;;2.08;0.80;;;25.60;43.80;;;;;;5052869;28;20202;-40
2022/10/31 04:42:34;;;;;;;0.85;0.60;;;25.70;44.00;;;;;;5052122;28;20576;-40
2022/10/31 04:45:05;;;;;;;1.25;0.63;;;25.60;43.90;;;;;;5049979;28;20202;-40
2022/10/31 04:47:37;;;;;;;1.30;0.60;;;25.60;44.00;;;;;;5052482;28;20219;-40
2022/10/31 04:50:08;;;;;;;0.95;0.80;;;25.60;44.00;;;;;;5050938;28;20647;-40
2022/10/31 04:52:45;;;;;;;0.73;0.70;;;25.60;44.00;;;;;;5051546;28;20231;-42
2022/10/31 04:55:17;;;;;;;1.08;0.80;;;25.50;44.00;;;;;;5052047;28;20188;-40
2022/10/31 04:57:49;;;;;;;2.05;0.75;;;25.50;44.10;;;;;;5051831;28;20215;-40
2022/10/31 05:00:22;;;;;;;1.27;0.77;;;25.50;44.10;;;;;;5051771;28;20187;-39
2022/10/31 05:02:54;;;;;;;0.80;0.60;;;25.50;44.10;;;;;;5052467;28;20206;-40
2022/10/31 05:05:26;;;;;;;0.82;0.50;;;25.50;44.10;;;;;;5046408;28;20208;-40
2022/10/31 05:07:59;;;;;;;1.35;0.80;;;25.40;44.10;;;;;;5032613;28;20220;-44
2022/10/31 05:10:31;;;;;;;1.17;0.85;;;25.40;44.10;;;;;;5044049;28;20192;-40
2022/10/31 05:13:03;;;;;;;1.20;0.82;;;25.40;44.10;;;;;;5051523;28;20223;-43
2022/10/31 05:15:34;;;;;;;0.60;0.60;;;25.40;44.10;;;;;;5050857;28;20571;-40
2022/10/31 05:18:05;;;;;;;0.95;0.70;;;25.40;44.20;;;;;;5050925;28;20212;-41
2022/10/31 05:20:36;;;;;;;0.88;0.60;;;25.40;44.30;;;;;;5045012;28;20188;-40
2022/10/31 05:23:09;;;;;;;0.98;0.60;;;25.30;44.90;;;;;;5030355;28;20192;-40
2022/10/31 05:25:42;;;;;;;0.80;0.70;;;25.30;44.30;;;;;;5031945;28;20200;-40
2022/10/31 05:28:13;;;;;;;0.60;0.60;;;25.30;44.40;;;;;;5031425;28;20227;-40
2022/10/31 05:30:44;;;;;;;1.35;0.80;;;25.20;44.40;;;;;;5032100;28;20570;-40
2022/10/31 05:33:15;;;;;;;0.93;0.50;;;25.20;44.50;;;;;;5031889;28;20235;-40
2022/10/31 05:35:45;;;;;;;0.98;0.55;;;25.20;44.50;;;;;;5032058;28;20653;-40
2022/10/31 05:38:18;;;;;;;1.90;0.80;;;25.20;44.50;;;;;;5030861;28;20220;-41
2022/10/31 05:40:49;;;;;;;1.05;0.80;;;25.20;44.60;;;;;;5046482;28;20203;-41
2022/10/31 05:43:19;;;;;;;1.02;1.00;;;25.20;44.60;;;;;;5050660;28;20571;-40
2022/10/31 05:45:53;;;;;;;1.35;0.88;;;25.10;44.60;;;;;;5051002;28;20196;-40
2022/10/31 05:48:24;;;;;;;1.90;0.98;;;25.10;44.60;;;;;;5051391;28;20678;-40
2022/10/31 05:50:55;;;;;;;2.22;1.17;;;25.10;44.70;;;;;;5043286;28;20207;-40
2022/10/31 05:53:28;;;;;;;1.05;0.90;;;25.10;44.70;;;;;;5038179;28;20694;-40
2022/10/31 05:55:58;;;;;;;1.55;1.00;;;25.10;44.80;;;;;;5030451;28;20215;-40
2022/10/31 05:58:29;;;;;;;1.63;1.13;;;25.00;44.80;;;;;;5032714;28;20216;-40
2022/10/31 06:01:00;;;;;;;1.10;1.00;;;25.00;44.90;;;;;;5037951;28;20192;-40
2022/10/31 06:03:30;;;;;;;2.03;1.15;;;24.90;45.60;;;;;;5048321;28;20778;-40
2022/10/31 06:06:01;;;;;;;1.40;1.00;;;24.90;45.10;;;;;;5029935;28;20203;-42
2022/10/31 06:08:34;;;;;;;2.08;1.02;;;24.90;45.10;;;;;;5030361;28;20679;-42
2022/10/31 06:11:04;;;;;;;1.40;0.95;;;24.90;45.20;;;;;;5046932;28;20651;-40
2022/10/31 06:13:35;;;;;;;1.52;1.13;;;24.90;45.20;;;;;;5049678;28;20223;-40
2022/10/31 06:16:06;;;;;;;1.90;1.20;;;24.90;45.30;;;;;;5049514;28;20222;-42
2022/10/31 06:18:37;;;;;;;2.30;1.25;;;24.80;45.30;;;;;;5049176;28;20238;-40
2022/10/31 06:21:07;;;;;;;1.60;1.10;;;24.80;45.30;;;;;;5049132;28;20203;-41
2022/10/31 06:23:40;;;;;;;2.00;0.90;;;24.80;45.30;;;;;;5049237;28;20694;-39
2022/10/31 06:26:11;;;;;;;2.67;1.20;;;24.80;45.40;;;;;;5049289;28;20195;-46
2022/10/31 06:28:41;;;;;;;1.60;0.95;;;24.80;45.40;;;;;;5048965;28;20224;-39
2022/10/31 06:31:12;;;;;;;2.55;1.13;;;24.70;45.40;;;;;;5048255;28;20198;-40
2022/10/31 06:33:44;;;;;;;2.58;1.08;;;24.70;45.50;;;;;;5049333;28;20238;-41
2022/10/31 06:36:15;;;;;;;3.03;1.15;;;24.70;45.50;;;;;;5049245;28;20200;-39
2022/10/31 06:38:47;;;;;;;1.10;0.77;;;24.70;45.70;;;;;;5049655;28;20219;-39
2022/10/31 06:41:19;;;;;;;1.70;1.08;;;24.60;45.60;;;;;;5049426;28;20198;-39
2022/10/31 06:43:50;;;;;;;1.67;0.98;;;24.60;45.70;;;;;;5049769;28;20203;-39
2022/10/31 06:46:21;;;;;;;2.42;1.10;;;24.50;45.70;;;;;;5048968;28;20651;-39
2022/10/31 06:48:52;;;;;;;1.48;0.80;;;24.60;45.70;;;;;;5048832;28;20211;-39
2022/10/31 06:51:22;;;;;;;2.30;0.90;;;24.50;45.70;;;;;;5048859;28;20667;-40
2022/10/31 06:53:55;;;;;;;1.48;1.00;;;24.50;45.70;;;;;;5049512;28;20230;-39
2022/10/31 06:56:26;;;;;;;1.30;1.08;;;24.50;45.70;;;;;;5049912;28;20200;-40
2022/10/31 06:58:56;;;;;;;2.83;1.00;;;24.50;45.80;;;;;;5049955;28;20227;-40
2022/10/31 07:01:27;;;;;;;1.30;0.85;;;24.50;45.80;;;;;;5049527;28;20312;-40
2022/10/31 07:03:58;;;;;;;1.85;1.08;;;24.50;45.80;;;;;;5049700;28;20565;-39
2022/10/31 07:06:28;;;;;;;1.67;0.80;;;24.40;45.80;;;;;;5049324;28;20203;-40
2022/10/31 07:09:01;;;;;;;1.88;1.10;;;24.40;45.80;;;;;;5049414;28;20718;-40
2022/10/31 07:11:32;;;;;;;0.90;0.80;;;24.40;45.80;;;;;;5049284;28;20199;-40
2022/10/31 07:14:02;;;;;;;1.00;0.88;;;24.30;45.80;;;;;;5049306;28;20227;-40
2022/10/31 07:16:33;;;;;;;0.73;0.70;;;24.30;45.90;;;;;;5049087;28;20673;-40
2022/10/31 07:19:04;;;;;;;1.88;0.90;;;24.30;45.90;;;;;;5048684;28;20231;-39
2022/10/31 07:21:34;;;;;;;1.95;1.00;;;24.30;46.00;;;;;;5047981;28;20191;-39
2022/10/31 07:24:07;;;;;;;1.33;0.93;;;24.30;46.00;;;;;;5048764;28;20202;-40
2022/10/31 07:26:38;;;;;;;1.67;0.70;;;24.20;46.00;;;;;;5048610;28;20204;-40
2022/10/31 07:29:09;;;;;;;1.98;0.75;;;24.20;46.00;;;;;;5048888;28;20651;-39
2022/10/31 07:31:40;;;;;;;1.50;0.80;;;24.20;46.00;;;;;;5049276;28;20199;-41
2022/10/31 07:34:10;;;;;;;0.73;0.70;;;24.20;46.00;;;;;;5049217;28;20227;-39
2022/10/31 07:36:41;;;;;;;1.38;0.90;;;24.20;46.00;;;;;;5048631;28;20211;-39
2022/10/31 07:39:14;;;;;;;1.48;0.85;;;24.10;46.00;;;;;;5048948;28;20605;-40
2022/10/31 07:41:44;;;;;;;1.58;0.80;;;24.10;46.00;;;;;;5049082;28;20659;-45
2022/10/31 07:44:15;;;;;;;1.88;0.85;;;24.10;46.00;;;;;;5048777;28;20195;-40
2022/10/31 07:46:46;;;;;;;2.30;0.90;;;24.00;46.10;;;;;;5052361;28;20191;-44
2022/10/31 07:49:16;;;;;;;1.83;0.93;;;24.00;46.10;;;;;;5052041;28;20196;-39
2022/10/31 07:51:47;;;;;;;0.82;0.77;;;24.00;46.20;;;;;;5052071;28;20196;-47
2022/10/31 07:54:20;;;;;;;1.48;1.00;;;24.00;46.20;;;;;;5052420;28;20223;-41
2022/10/31 07:56:50;;;;;;;0.80;0.70;;;23.90;46.20;;;;;;5051874;28;20195;-40
2022/10/31 07:59:21;;;;;;;1.25;0.80;;;23.90;46.20;;;;;;5052592;28;20667;-39
2022/10/31 08:01:52;;;;;;;1.27;0.70;;;23.90;46.20;;;;;;5052384;28;20222;-39
2022/10/31 08:04:22;;;;;;;2.17;0.70;;;23.90;46.20;;;;;;5052476;28;20211;-39
2022/10/31 08:06:53;;;;;;;1.20;0.90;;;23.90;46.30;;;;;;5050305;28;20199;-40
2022/10/31 08:09:25;;;;;;;0.98;0.85;;;23.90;46.20;;;;;;5035635;28;20203;-40
2022/10/31 08:11:57;;;;;;;2.70;0.80;;;23.80;46.20;;;;;;5051863;28;20200;-40
2022/10/31 08:14:27;;;;;;;1.25;0.90;;;23.80;46.30;;;;;;5051854;28;20223;-39
2022/10/31 08:16:58;;;;;;;1.55;0.90;;;23.80;46.30;;;;;;5052085;28;20192;-43
2022/10/31 08:19:29;;;;;;;1.10;0.70;;;23.80;46.30;;;;;;5052078;28;20218;-39
2022/10/31 08:22:00;;;;;;;0.82;0.80;;;23.80;46.40;;;;;;5051532;28;20202;-40
2022/10/31 08:24:32;;;;;;;1.30;0.90;;;23.70;46.40;;;;;;5052115;28;20207;-39
2022/10/31 08:27:03;;;;;;;1.00;0.82;;;23.70;46.40;;;;;;5051757;28;20222;-39
2022/10/31 08:29:34;;;;;;;1.58;0.85;;;23.70;46.40;;;;;;5051771;28;20195;-40
2022/10/31 08:32:05;;;;;;;0.47;0.30;;;23.70;46.50;;;;;;5051256;28;20218;-51
2022/10/31 08:34:35;;;;;;;0.98;0.30;;;23.60;46.70;;;;;;5051952;28;20742;-41
2022/10/31 08:37:06;;;;;;;0.65;0.32;;;23.40;47.00;;;;;;5051432;28;20222;-39
2022/10/31 08:39:38;;;;;;;0.45;0.30;;;23.30;47.20;;;;;;5051858;28;20207;-40
2022/10/31 08:42:09;;;;;;;0.30;0.30;;;23.10;47.30;;;;;;5052325;28;20203;-42
2022/10/31 08:44:40;;;;;;;0.30;0.30;;;23.10;47.40;;;;;;5051836;28;20200;-39
2022/10/31 08:47:11;;;;;;;0.30;0.30;;;23.00;47.40;;;;;;5051095;28;20600;-42
2022/10/31 08:49:41;;;;;;;1.20;0.35;;;23.00;47.60;;;;;;5051718;28;20199;-39
2022/10/31 08:52:12;;;;;;;0.60;0.40;;;23.00;47.90;;;;;;5051268;28;20196;-39
2022/10/31 08:54:45;;;;;;;0.50;0.35;;;23.00;47.90;;;;;;5051440;28;20654;-39
2022/10/31 08:57:15;;;;;;;0.60;0.40;;;23.00;47.90;;;;;;5049737;28;20219;-39
2022/10/31 08:59:46;;;;;;;1.58;0.40;;;23.00;47.90;;;;;;5051413;28;20207;-39
2022/10/31 09:02:17;;;;;;;0.80;0.40;;;22.90;47.90;;;;;;5051243;28;20199;-40
2022/10/31 09:04:47;;;;;;;0.32;0.20;;;22.90;47.90;;;;;;5050958;28;20216;-39
2022/10/31 09:07:18;;;;;;;0.77;0.30;;;22.90;47.90;;;;;;5050889;28;20223;-39
2022/10/31 09:09:51;;;;;;;0.98;0.47;;;22.90;47.90;;;;;;5051023;28;20199;-39
2022/10/31 09:12:21;;;;;;;0.47;0.30;;;22.90;47.90;;;;;;5045248;28;20196;-44
2022/10/31 09:14:52;;;;;;;1.25;0.43;;;22.80;47.90;;;;;;5051990;28;20575;-39
2022/10/31 09:17:23;;;;;;;1.38;0.40;;;22.80;47.80;;;;;;5048370;28;20220;-39
2022/10/31 09:19:53;;;;;;;0.43;0.32;;;22.80;47.80;;;;;;5032193;28;20202;-39
2022/10/31 09:22:24;;;;;;;0.45;0.40;;;22.80;47.80;;;;;;5046966;28;20222;-39
2022/10/31 09:24:57;;;;;;;0.43;0.43;;;22.80;47.80;;;;;;5051192;28;20195;-43
2022/10/31 09:27:27;;;;;;;0.30;0.30;;;22.80;47.80;;;;;;5051607;28;20299;-41
2022/10/31 09:29:58;;;;;;;0.57;0.30;;;22.80;47.80;;;;;;5051510;28;20670;-39
2022/10/31 09:32:29;;;;;;;0.73;0.50;;;22.80;47.80;;;;;;5051841;28;20207;-39
2022/10/31 09:34:59;;;;;;;0.43;0.38;;;22.70;47.80;;;;;;5051882;28;20199;-42
2022/10/31 09:37:30;;;;;;;0.90;0.40;;;22.70;47.80;;;;;;5046291;28;20589;-39
2022/10/31 09:40:03;;;;;;;0.88;0.50;;;22.70;47.90;;;;;;5039342;28;20206;-39
2022/10/31 09:42:52;;;;;;;1.17;0.40;;;22.70;47.90;;;;;;5051060;28;20674;-43
2022/10/31 09:45:29;;;;;;;0.50;0.45;;;22.60;47.90;;;;;;5051862;28;20207;-43
2022/10/31 09:48:12;;;;;;;0.68;0.40;;;22.60;47.80;;;;;;5051210;28;20574;-39
2022/10/31 09:50:47;;;;;;;0.45;0.43;;;22.60;47.80;;;;;;5036577;28;20211;-42
2022/10/31 09:53:26;;;;;;;0.40;0.40;;;22.60;47.80;;;;;;5031043;28;20313;-41
2022/10/31 09:56:00;;;;;;;1.23;0.50;;;22.60;47.80;;;;;;5030324;28;20235;-42
2022/10/31 09:58:33;;;;;;;0.65;0.50;;;22.60;47.80;;;;;;5047858;28;20219;-39
2022/10/31 10:01:05;;;;;;;0.30;0.30;;;22.50;48.30;;;;;;5050148;28;20218;-39
2022/10/31 10:03:38;;;;;;;0.63;0.50;;;22.50;47.70;;;;;;5050860;28;20827;-39
2022/10/31 10:06:16;;;;;;;0.40;0.40;;;22.50;47.80;;;;;;5044870;28;20199;-40
2022/10/31 10:08:47;;;;;;;0.70;0.47;;;22.50;47.80;;;;;;5031128;28;20223;-42
2022/10/31 10:11:40;;;;;;;0.30;0.30;;;22.40;47.80;;;;;;5050070;28;20203;-41
2022/10/31 10:14:29;;;;;;;0.47;0.38;;;22.40;47.80;;;;;;5050496;28;20229;-39
2022/10/31 10:17:19;;;;;;;0.40;0.30;;;22.40;47.80;;;;;;5041173;28;20655;-44
2022/10/31 10:20:19;;;;;;;0.40;0.32;;;22.40;47.80;;;;;;5030467;28;20211;-39
2022/10/31 10:23:00;;;;;;;0.80;0.40;;;22.40;47.80;;;;;;5031006;28;20219;-46
2022/10/31 10:25:41;;;;;;;1.08;0.55;;;22.40;47.80;;;;;;5044844;28;20681;-43
2022/10/31 10:28:22;;;;;;;0.60;0.40;;;22.30;47.80;;;;;;5035752;28;20212;-45
2022/10/31 10:30:57;;;;;;;0.50;0.40;;;22.30;47.80;;;;;;5030949;28;20200;-49
2022/10/31 10:33:33;;;;;;;1.08;0.43;;;22.30;47.80;;;;;;5047340;28;20702;-43
2022/10/31 10:36:06;;;;;;;1.10;0.30;;;22.30;47.80;;;;;;5051056;28;20217;-40
2022/10/31 10:38:40;;;;;;;0.70;0.35;;;22.30;47.90;;;;;;5050088;28;20222;-40
2022/10/31 10:41:18;;;;;;;0.93;0.40;;;22.20;47.80;;;;;;5050844;28;20209;-39
2022/10/31 10:43:53;;;;;;;0.40;0.40;;;22.20;47.80;;;;;;5049567;28;20195;-42
2022/10/31 10:49:21;;;;;;;1.20;0.43;;;22.20;47.80;;;;;;5050289;28;20280;-39
2022/10/31 10:51:58;;;;;;;0.40;0.40;;;22.20;47.70;;;;;;5049750;28;20200;-42
2022/10/31 10:54:45;;;;;;;1.33;0.40;;;22.20;47.80;;;;;;5049894;28;20250;-39
2022/10/31 10:57:25;;;;;;;0.70;0.43;;;22.20;47.80;;;;;;5043623;28;20211;-41
2022/10/31 10:59:58;;;;;;;0.30;0.30;;;22.10;47.80;;;;;;5029955;28;20207;-39
2022/10/31 11:02:32;;;;;;;0.60;0.50;;;22.10;47.80;;;;;;5030244;28;20184;-39
2022/10/31 11:05:05;;;;;;;0.50;0.40;;;22.10;47.80;;;;;;5030035;28;20211;-40
2022/10/31 11:07:42;;;;;;;1.27;0.38;;;22.10;47.80;;;;;;5045132;28;20292;-39
2022/10/31 11:10:17;;;;;;;0.43;0.35;;;22.00;47.80;;;;;;5049972;28;20199;-40
2022/10/31 11:13:00;;;;;;;0.40;0.40;;;22.00;47.80;;;;;;5049990;28;20560;-43
2022/10/31 11:15:37;;;;;;;1.15;0.50;;;22.00;47.80;;;;;;5049979;28;20208;-39
2022/10/31 11:18:08;;;;;;;0.90;0.30;;;22.00;47.80;;;;;;5049236;28;20214;-41
2022/10/31 11:20:40;;;;;;;1.27;0.40;;;22.00;47.80;;;;;;5053062;28;20210;-40
2022/10/31 11:23:22;;;;;;;0.73;0.43;;;21.90;47.80;;;;;;5041704;28;20216;-39
2022/10/31 11:25:55;;;;;;;0.90;0.30;;;21.90;47.80;;;;;;5034823;28;20199;-39
2022/10/31 11:28:26;;;;;;;1.02;0.30;;;21.90;47.70;;;;;;5033850;28;20212;-41
2022/10/31 11:31:00;;;;;;;0.50;0.38;;;21.90;47.70;;;;;;5033766;28;20200;-38
2022/10/31 11:33:34;;;;;;;0.40;0.30;;;21.90;47.70;;;;;;5034335;28;20216;-39
2022/10/31 11:36:16;;;;;;;0.40;0.40;;;21.80;47.70;;;;;;5034137;28;20200;-39
2022/10/31 11:38:47;;;;;;;0.57;0.50;;;21.80;47.80;;;;;;5033251;28;20216;-39
2022/10/31 11:41:21;;;;;;;0.95;0.40;;;21.80;47.80;;;;;;5052759;28;20203;-39
2022/10/31 11:43:54;;;;;;;0.40;0.32;;;21.80;47.80;;;;;;5053300;28;20199;-39
2022/10/31 11:46:33;;;;;;;0.70;0.50;;;21.70;47.80;;;;;;5052853;28;20684;-42
2022/10/31 11:49:04;;;;;;;0.47;0.30;;;21.70;47.80;;;;;;5052949;28;20219;-39
2022/10/31 11:51:37;;;;;;;0.50;0.30;;;21.70;47.90;;;;;;5052709;28;20199;-39
2022/10/31 11:54:09;;;;;;;0.50;0.50;;;21.70;47.90;;;;;;5052372;28;20269;-39
2022/10/31 11:56:43;;;;;;;0.63;0.55;;;21.70;47.90;;;;;;5052707;28;20196;-39
2022/10/31 11:59:24;;;;;;;0.75;0.40;;;21.60;47.80;;;;;;5052268;28;20199;-41
2022/10/31 12:01:59;;;;;;;0.52;0.43;;;21.60;47.80;;;;;;5051856;28;20666;-39
2022/10/31 12:04:38;;;;;;;0.50;0.40;;;21.60;47.70;;;;;;5052225;28;20681;-39
2022/10/31 12:07:08;;;;;;;0.40;0.40;;;21.60;47.70;;;;;;5051746;28;20215;-40
2022/10/31 12:09:40;;;;;;;0.40;0.35;;;21.60;47.70;;;;;;5052493;28;20226;-39
2022/10/31 12:12:43;;;;;;;0.40;0.30;;;21.60;47.80;;;;;;5052618;28;20643;-40
2022/10/31 12:15:30;;;;;;;0.80;0.43;;;21.50;47.80;;;;;;5051045;28;20229;-39
2022/10/31 12:18:27;;;;;;;0.95;0.40;;;21.50;47.80;;;;;;5051146;28;20218;-41
2022/10/31 12:21:13;;;;;;;0.43;0.35;;;21.50;47.80;;;;;;5046673;28;20200;-40
2022/10/31 12:23:55;;;;;;;0.30;0.30;;;21.50;47.80;;;;;;5052124;28;20690;-39
2022/10/31 12:26:34;;;;;;;0.40;0.30;;;21.40;47.80;;;;;;5052018;28;20196;-40
2022/10/31 12:29:20;;;;;;;0.40;0.40;;;21.40;47.80;;;;;;5052050;28;20207;-39
2022/10/31 12:32:02;;;;;;;0.57;0.40;;;21.40;47.80;;;;;;5051050;28;20199;-44
2022/10/31 12:35:03;;;;;;;0.40;0.40;;;21.40;47.80;;;;;;5051629;28;20230;-39
2022/10/31 12:37:45;;;;;;;0.60;0.40;;;21.40;47.80;;;;;;5051411;28;20710;-39
2022/10/31 12:40:49;;;;;;;0.55;0.50;;;21.40;47.80;;;;;;5051537;28;20279;-39
2022/10/31 12:43:37;;;;;;;0.43;0.38;;;21.30;47.70;;;;;;5051945;28;20285;-39
2022/10/31 12:46:12;;;;;;;0.88;0.30;;;21.30;47.70;;;;;;5051165;28;20206;-39
2022/10/31 12:48:59;;;;;;;0.40;0.40;;;21.30;47.70;;;;;;5051271;28;20226;-39
2022/10/31 12:51:40;;;;;;;0.50;0.50;;;21.30;47.80;;;;;;5051113;28;20195;-40
2022/10/31 12:54:24;;;;;;;0.85;0.30;;;21.20;47.70;;;;;;5051282;28;20671;-39
2022/10/31 12:57:03;;;;;;;1.17;0.40;;;21.20;47.80;;;;;;5048792;28;20195;-39
2022/10/31 12:59:38;;;;;;;0.60;0.30;;;21.20;47.80;;;;;;5031830;28;20211;-39
2022/10/31 13:02:18;;;;;;;0.43;0.40;;;21.20;47.80;;;;;;5041461;28;20191;-39
2022/10/31 13:04:53;;;;;;;0.38;0.38;;;21.20;47.80;;;;;;5051414;28;20203;-40
2022/10/31 13:07:34;;;;;;;1.05;0.68;;;21.20;47.70;;;;;;5050767;28;20713;-39
2022/10/31 13:10:11;;;;;;;0.32;0.30;;;21.10;47.60;;;;;;5051085;28;20213;-39
2022/10/31 13:12:44;;;;;;;0.65;0.32;;;21.10;47.60;;;;;;5051365;28;20268;-40
2022/10/31 13:15:20;;;;;;;0.43;0.40;;;21.10;47.60;;;;;;5032530;28;20216;-38
2022/10/31 13:17:54;;;;;;;0.30;0.30;;;21.10;47.60;;;;;;5041005;28;20211;-40
2022/10/31 13:20:30;;;;;;;0.28;0.25;;;21.10;47.60;;;;;;5050941;28;20203;-41
2022/10/31 13:23:11;;;;;;;0.40;0.30;;;21.10;47.60;;;;;;5050585;28;20221;-39
2022/10/31 13:25:47;;;;;;;0.50;0.50;;;21.10;47.60;;;;;;5050887;28;20211;-40
2022/10/31 13:28:27;;;;;;;0.47;0.40;;;21.00;47.60;;;;;;5049227;28;20690;-41